sensor_id;sensor_type;location;lat;lon;timestamp;P1;durP1;ratioP1;P2;durP2;ratioP2
11524;SDS011;5819;49.648;8.330;2024-03-06T00:00:01;5.50;;;2.80;;
11524;SDS011;5819;49.648;8.330;2024-03-06T00:02:30;3.33;;;2.30;;
11524;SDS011;5819;49.648;8.330;2024-03-06T00:04:58;4.43;;;2.88;;
11524;SDS011;5819;49.648;8.330;2024-03-06T00:07:28;4.30;;;2.47;;
11524;SDS011;5819;49.648;8.330;2024-03-06T00:09:56;7.53;;;2.90;;
11524;SDS011;5819;49.648;8.330;2024-03-06T00:12:24;4.05;;;2.78;;
11524;SDS011;5819;49.648;8.330;2024-03-06T00:14:52;4.65;;;2.83;;
11524;SDS011;5819;49.648;8.330;2024-03-06T00:17:20;4.22;;;2.60;;
11524;SDS011;5819;49.648;8.330;2024-03-06T00:19:47;5.80;;;3.47;;
11524;SDS011;5819;49.648;8.330;2024-03-06T00:22:15;4.03;;;3.25;;
11524;SDS011;5819;49.648;8.330;2024-03-06T00:24:50;8.63;;;3.92;;
11524;SDS011;5819;49.648;8.330;2024-03-06T00:27:18;5.93;;;3.28;;
11524;SDS011;5819;49.648;8.330;2024-03-06T00:29:46;5.93;;;3.45;;
11524;SDS011;5819;49.648;8.330;2024-03-06T00:32:13;5.13;;;2.90;;
11524;SDS011;5819;49.648;8.330;2024-03-06T00:34:41;4.72;;;3.15;;
11524;SDS011;5819;49.648;8.330;2024-03-06T00:37:09;4.85;;;2.58;;
11524;SDS011;5819;49.648;8.330;2024-03-06T00:39:37;3.33;;;2.17;;
11524;SDS011;5819;49.648;8.330;2024-03-06T00:42:08;4.28;;;2.80;;
11524;SDS011;5819;49.648;8.330;2024-03-06T00:44:37;6.35;;;3.25;;
11524;SDS011;5819;49.648;8.330;2024-03-06T00:47:05;5.72;;;4.38;;
11524;SDS011;5819;49.648;8.330;2024-03-06T00:49:33;4.25;;;3.38;;
11524;SDS011;5819;49.648;8.330;2024-03-06T00:52:00;4.57;;;2.88;;
11524;SDS011;5819;49.648;8.330;2024-03-06T00:54:30;4.07;;;2.75;;
11524;SDS011;5819;49.648;8.330;2024-03-06T00:56:58;4.82;;;3.20;;
11524;SDS011;5819;49.648;8.330;2024-03-06T00:59:27;6.85;;;4.53;;
11524;SDS011;5819;49.648;8.330;2024-03-06T01:01:55;7.82;;;5.00;;
11524;SDS011;5819;49.648;8.330;2024-03-06T01:04:23;4.35;;;3.78;;
11524;SDS011;5819;49.648;8.330;2024-03-06T01:06:51;5.35;;;3.50;;
11524;SDS011;5819;49.648;8.330;2024-03-06T01:09:19;6.05;;;3.55;;
11524;SDS011;5819;49.648;8.330;2024-03-06T01:11:47;4.30;;;3.83;;
11524;SDS011;5819;49.648;8.330;2024-03-06T01:14:15;4.88;;;4.00;;
11524;SDS011;5819;49.648;8.330;2024-03-06T01:16:44;5.30;;;3.92;;
11524;SDS011;5819;49.648;8.330;2024-03-06T01:19:12;5.53;;;4.00;;
11524;SDS011;5819;49.648;8.330;2024-03-06T01:21:40;6.22;;;3.92;;
11524;SDS011;5819;49.648;8.330;2024-03-06T01:24:08;6.47;;;5.05;;
11524;SDS011;5819;49.648;8.330;2024-03-06T01:26:36;9.80;;;5.18;;
11524;SDS011;5819;49.648;8.330;2024-03-06T01:29:04;6.03;;;4.45;;
11524;SDS011;5819;49.648;8.330;2024-03-06T01:31:32;4.80;;;4.05;;
11524;SDS011;5819;49.648;8.330;2024-03-06T01:34:01;6.38;;;4.07;;
11524;SDS011;5819;49.648;8.330;2024-03-06T01:36:29;5.30;;;4.15;;
11524;SDS011;5819;49.648;8.330;2024-03-06T01:38:57;6.97;;;4.20;;
11524;SDS011;5819;49.648;8.330;2024-03-06T01:41:25;6.07;;;4.10;;
11524;SDS011;5819;49.648;8.330;2024-03-06T01:43:53;6.63;;;4.20;;
11524;SDS011;5819;49.648;8.330;2024-03-06T01:46:21;7.05;;;4.90;;
11524;SDS011;5819;49.648;8.330;2024-03-06T01:48:49;4.90;;;4.00;;
11524;SDS011;5819;49.648;8.330;2024-03-06T01:51:19;6.75;;;4.53;;
11524;SDS011;5819;49.648;8.330;2024-03-06T01:53:47;5.30;;;4.05;;
11524;SDS011;5819;49.648;8.330;2024-03-06T01:56:15;6.97;;;4.45;;
11524;SDS011;5819;49.648;8.330;2024-03-06T01:58:45;5.18;;;3.63;;
11524;SDS011;5819;49.648;8.330;2024-03-06T02:01:14;5.43;;;4.03;;
11524;SDS011;5819;49.648;8.330;2024-03-06T02:03:44;5.35;;;4.18;;
11524;SDS011;5819;49.648;8.330;2024-03-06T02:06:13;5.22;;;4.18;;
11524;SDS011;5819;49.648;8.330;2024-03-06T02:08:47;6.35;;;4.00;;
11524;SDS011;5819;49.648;8.330;2024-03-06T02:11:15;6.07;;;4.07;;
11524;SDS011;5819;49.648;8.330;2024-03-06T02:13:44;6.93;;;4.20;;
11524;SDS011;5819;49.648;8.330;2024-03-06T02:16:12;5.00;;;3.88;;
11524;SDS011;5819;49.648;8.330;2024-03-06T02:18:50;6.70;;;3.97;;
11524;SDS011;5819;49.648;8.330;2024-03-06T02:21:20;7.10;;;3.92;;
11524;SDS011;5819;49.648;8.330;2024-03-06T02:23:49;4.93;;;3.30;;
11524;SDS011;5819;49.648;8.330;2024-03-06T02:26:20;5.97;;;3.30;;
11524;SDS011;5819;49.648;8.330;2024-03-06T02:28:49;4.95;;;3.10;;
11524;SDS011;5819;49.648;8.330;2024-03-06T02:31:19;5.47;;;3.15;;
11524;SDS011;5819;49.648;8.330;2024-03-06T02:33:48;5.38;;;3.80;;
11524;SDS011;5819;49.648;8.330;2024-03-06T02:36:17;5.63;;;4.15;;
11524;SDS011;5819;49.648;8.330;2024-03-06T02:38:47;5.90;;;3.72;;
11524;SDS011;5819;49.648;8.330;2024-03-06T02:41:15;6.82;;;3.70;;
11524;SDS011;5819;49.648;8.330;2024-03-06T02:43:44;5.78;;;3.60;;
11524;SDS011;5819;49.648;8.330;2024-03-06T02:46:12;6.18;;;3.42;;
11524;SDS011;5819;49.648;8.330;2024-03-06T02:48:40;3.97;;;3.20;;
11524;SDS011;5819;49.648;8.330;2024-03-06T02:51:07;5.50;;;3.40;;
11524;SDS011;5819;49.648;8.330;2024-03-06T02:53:35;5.13;;;3.25;;
11524;SDS011;5819;49.648;8.330;2024-03-06T02:56:05;3.83;;;3.30;;
11524;SDS011;5819;49.648;8.330;2024-03-06T02:58:34;5.05;;;3.00;;
11524;SDS011;5819;49.648;8.330;2024-03-06T03:01:03;6.30;;;2.90;;
11524;SDS011;5819;49.648;8.330;2024-03-06T03:03:31;3.63;;;2.60;;
11524;SDS011;5819;49.648;8.330;2024-03-06T03:05:59;4.32;;;3.22;;
11524;SDS011;5819;49.648;8.330;2024-03-06T03:08:27;6.30;;;3.28;;
11524;SDS011;5819;49.648;8.330;2024-03-06T03:10:55;5.05;;;3.25;;
11524;SDS011;5819;49.648;8.330;2024-03-06T03:13:25;5.50;;;3.35;;
11524;SDS011;5819;49.648;8.330;2024-03-06T03:15:53;4.05;;;3.33;;
11524;SDS011;5819;49.648;8.330;2024-03-06T03:18:21;5.88;;;3.67;;
11524;SDS011;5819;49.648;8.330;2024-03-06T03:20:48;5.40;;;3.33;;
11524;SDS011;5819;49.648;8.330;2024-03-06T03:23:17;4.68;;;3.15;;
11524;SDS011;5819;49.648;8.330;2024-03-06T03:25:49;4.40;;;3.22;;
11524;SDS011;5819;49.648;8.330;2024-03-06T03:28:16;5.55;;;3.75;;
11524;SDS011;5819;49.648;8.330;2024-03-06T03:30:45;6.30;;;3.60;;
11524;SDS011;5819;49.648;8.330;2024-03-06T03:33:13;5.13;;;3.03;;
11524;SDS011;5819;49.648;8.330;2024-03-06T03:35:41;3.75;;;3.38;;
11524;SDS011;5819;49.648;8.330;2024-03-06T03:38:10;5.88;;;3.67;;
11524;SDS011;5819;49.648;8.330;2024-03-06T03:40:38;5.25;;;3.10;;
11524;SDS011;5819;49.648;8.330;2024-03-06T03:43:06;6.63;;;3.50;;
11524;SDS011;5819;49.648;8.330;2024-03-06T03:45:35;5.90;;;3.28;;
11524;SDS011;5819;49.648;8.330;2024-03-06T03:48:05;4.78;;;3.28;;
11524;SDS011;5819;49.648;8.330;2024-03-06T03:50:33;5.20;;;3.15;;
11524;SDS011;5819;49.648;8.330;2024-03-06T03:53:01;5.15;;;2.97;;
11524;SDS011;5819;49.648;8.330;2024-03-06T03:55:29;5.25;;;2.70;;
11524;SDS011;5819;49.648;8.330;2024-03-06T03:57:57;3.72;;;2.88;;
11524;SDS011;5819;49.648;8.330;2024-03-06T04:00:25;4.75;;;2.88;;
11524;SDS011;5819;49.648;8.330;2024-03-06T04:02:52;6.05;;;3.10;;
11524;SDS011;5819;49.648;8.330;2024-03-06T04:05:22;7.18;;;4.10;;
11524;SDS011;5819;49.648;8.330;2024-03-06T04:07:50;4.75;;;3.90;;
11524;SDS011;5819;49.648;8.330;2024-03-06T04:10:18;5.50;;;4.25;;
11524;SDS011;5819;49.648;8.330;2024-03-06T04:12:47;5.38;;;3.50;;
11524;SDS011;5819;49.648;8.330;2024-03-06T04:15:15;6.28;;;3.78;;
11524;SDS011;5819;49.648;8.330;2024-03-06T04:17:43;7.35;;;4.50;;
11524;SDS011;5819;49.648;8.330;2024-03-06T04:20:11;6.38;;;4.60;;
11524;SDS011;5819;49.648;8.330;2024-03-06T04:22:41;8.10;;;7.28;;
11524;SDS011;5819;49.648;8.330;2024-03-06T04:25:09;8.85;;;6.45;;
11524;SDS011;5819;49.648;8.330;2024-03-06T04:27:37;10.98;;;9.82;;
11524;SDS011;5819;49.648;8.330;2024-03-06T04:30:05;9.15;;;8.35;;
11524;SDS011;5819;49.648;8.330;2024-03-06T04:32:34;9.93;;;8.93;;
11524;SDS011;5819;49.648;8.330;2024-03-06T04:35:01;9.10;;;8.30;;
11524;SDS011;5819;49.648;8.330;2024-03-06T04:37:29;9.65;;;8.75;;
11524;SDS011;5819;49.648;8.330;2024-03-06T04:40:01;9.68;;;8.55;;
11524;SDS011;5819;49.648;8.330;2024-03-06T04:42:34;8.68;;;7.88;;
11524;SDS011;5819;49.648;8.330;2024-03-06T04:45:03;9.55;;;6.68;;
11524;SDS011;5819;49.648;8.330;2024-03-06T04:47:36;7.03;;;6.15;;
11524;SDS011;5819;49.648;8.330;2024-03-06T04:50:07;10.52;;;5.95;;
11524;SDS011;5819;49.648;8.330;2024-03-06T04:52:36;6.65;;;5.55;;
11524;SDS011;5819;49.648;8.330;2024-03-06T04:55:07;9.05;;;5.35;;
11524;SDS011;5819;49.648;8.330;2024-03-06T04:57:37;6.07;;;4.80;;
11524;SDS011;5819;49.648;8.330;2024-03-06T05:00:07;6.57;;;4.88;;
11524;SDS011;5819;49.648;8.330;2024-03-06T05:02:36;7.63;;;4.43;;
11524;SDS011;5819;49.648;8.330;2024-03-06T05:05:22;7.93;;;5.20;;
11524;SDS011;5819;49.648;8.330;2024-03-06T05:08:08;7.78;;;4.55;;
11524;SDS011;5819;49.648;8.330;2024-03-06T05:10:55;6.10;;;4.50;;
11524;SDS011;5819;49.648;8.330;2024-03-06T05:13:41;4.93;;;4.43;;
11524;SDS011;5819;49.648;8.330;2024-03-06T05:16:26;7.13;;;4.60;;
11524;SDS011;5819;49.648;8.330;2024-03-06T05:19:13;7.13;;;5.97;;
11524;SDS011;5819;49.648;8.330;2024-03-06T05:21:59;5.93;;;4.60;;
11524;SDS011;5819;49.648;8.330;2024-03-06T05:24:45;6.13;;;5.20;;
11524;SDS011;5819;49.648;8.330;2024-03-06T05:27:31;9.18;;;5.28;;
11524;SDS011;5819;49.648;8.330;2024-03-06T05:30:16;5.97;;;4.55;;
11524;SDS011;5819;49.648;8.330;2024-03-06T05:33:02;5.63;;;5.00;;
11524;SDS011;5819;49.648;8.330;2024-03-06T05:35:47;5.45;;;4.57;;
11524;SDS011;5819;49.648;8.330;2024-03-06T05:38:32;5.90;;;4.82;;
11524;SDS011;5819;49.648;8.330;2024-03-06T05:41:18;5.68;;;4.78;;
11524;SDS011;5819;49.648;8.330;2024-03-06T05:44:05;8.25;;;5.28;;
11524;SDS011;5819;49.648;8.330;2024-03-06T05:46:50;6.70;;;4.55;;
11524;SDS011;5819;49.648;8.330;2024-03-06T05:49:36;5.03;;;4.53;;
11524;SDS011;5819;49.648;8.330;2024-03-06T05:52:21;7.82;;;5.45;;
11524;SDS011;5819;49.648;8.330;2024-03-06T05:55:07;6.63;;;5.20;;
11524;SDS011;5819;49.648;8.330;2024-03-06T05:57:52;6.15;;;5.05;;
11524;SDS011;5819;49.648;8.330;2024-03-06T06:00:41;8.25;;;4.82;;
11524;SDS011;5819;49.648;8.330;2024-03-06T06:03:09;5.40;;;4.72;;
11524;SDS011;5819;49.648;8.330;2024-03-06T06:05:38;6.38;;;5.10;;
11524;SDS011;5819;49.648;8.330;2024-03-06T06:08:07;6.82;;;4.65;;
11524;SDS011;5819;49.648;8.330;2024-03-06T06:10:35;5.05;;;4.32;;
11524;SDS011;5819;49.648;8.330;2024-03-06T06:13:03;5.82;;;4.68;;
11524;SDS011;5819;49.648;8.330;2024-03-06T06:15:31;7.13;;;4.47;;
11524;SDS011;5819;49.648;8.330;2024-03-06T06:18:01;6.90;;;4.75;;
11524;SDS011;5819;49.648;8.330;2024-03-06T06:20:29;7.95;;;5.03;;
11524;SDS011;5819;49.648;8.330;2024-03-06T06:22:57;7.40;;;4.50;;
11524;SDS011;5819;49.648;8.330;2024-03-06T06:25:25;6.85;;;4.72;;
11524;SDS011;5819;49.648;8.330;2024-03-06T06:27:53;4.90;;;4.30;;
11524;SDS011;5819;49.648;8.330;2024-03-06T06:30:21;6.57;;;4.30;;
11524;SDS011;5819;49.648;8.330;2024-03-06T06:32:49;6.28;;;4.25;;
11524;SDS011;5819;49.648;8.330;2024-03-06T06:35:18;7.97;;;4.68;;
11524;SDS011;5819;49.648;8.330;2024-03-06T06:37:46;6.95;;;5.25;;
11524;SDS011;5819;49.648;8.330;2024-03-06T06:40:15;7.20;;;4.97;;
11524;SDS011;5819;49.648;8.330;2024-03-06T06:42:44;6.97;;;4.68;;
11524;SDS011;5819;49.648;8.330;2024-03-06T06:45:15;9.38;;;6.13;;
11524;SDS011;5819;49.648;8.330;2024-03-06T06:47:44;9.43;;;7.35;;
11524;SDS011;5819;49.648;8.330;2024-03-06T06:50:13;7.25;;;6.00;;
11524;SDS011;5819;49.648;8.330;2024-03-06T06:52:43;6.55;;;5.32;;
11524;SDS011;5819;49.648;8.330;2024-03-06T06:55:11;7.80;;;5.40;;
11524;SDS011;5819;49.648;8.330;2024-03-06T06:57:39;7.50;;;5.22;;
11524;SDS011;5819;49.648;8.330;2024-03-06T07:00:07;6.22;;;5.40;;
11524;SDS011;5819;49.648;8.330;2024-03-06T07:02:38;7.60;;;5.22;;
11524;SDS011;5819;49.648;8.330;2024-03-06T07:05:07;8.65;;;4.65;;
11524;SDS011;5819;49.648;8.330;2024-03-06T07:07:36;5.93;;;4.90;;
11524;SDS011;5819;49.648;8.330;2024-03-06T07:10:08;8.43;;;4.43;;
11524;SDS011;5819;49.648;8.330;2024-03-06T07:12:36;7.43;;;4.97;;
11524;SDS011;5819;49.648;8.330;2024-03-06T07:15:04;8.43;;;5.07;;
11524;SDS011;5819;49.648;8.330;2024-03-06T07:17:33;7.30;;;4.63;;
11524;SDS011;5819;49.648;8.330;2024-03-06T07:20:01;11.80;;;5.03;;
11524;SDS011;5819;49.648;8.330;2024-03-06T07:22:31;7.25;;;4.70;;
11524;SDS011;5819;49.648;8.330;2024-03-06T07:25:00;7.82;;;4.55;;
11524;SDS011;5819;49.648;8.330;2024-03-06T07:27:29;6.18;;;5.13;;
11524;SDS011;5819;49.648;8.330;2024-03-06T07:29:57;6.65;;;4.28;;
11524;SDS011;5819;49.648;8.330;2024-03-06T07:32:25;8.88;;;4.57;;
11524;SDS011;5819;49.648;8.330;2024-03-06T07:34:53;6.95;;;4.15;;
11524;SDS011;5819;49.648;8.330;2024-03-06T07:37:22;5.18;;;4.07;;
11524;SDS011;5819;49.648;8.330;2024-03-06T07:39:50;5.10;;;3.10;;
11524;SDS011;5819;49.648;8.330;2024-03-06T07:42:19;5.82;;;2.58;;
11524;SDS011;5819;49.648;8.330;2024-03-06T07:44:49;4.18;;;2.47;;
11524;SDS011;5819;49.648;8.330;2024-03-06T07:47:17;3.45;;;2.45;;
11524;SDS011;5819;49.648;8.330;2024-03-06T07:49:45;4.57;;;3.47;;
11524;SDS011;5819;49.648;8.330;2024-03-06T07:52:13;11.73;;;6.47;;
11524;SDS011;5819;49.648;8.330;2024-03-06T07:54:41;11.25;;;6.95;;
11524;SDS011;5819;49.648;8.330;2024-03-06T07:57:09;7.85;;;5.97;;
11524;SDS011;5819;49.648;8.330;2024-03-06T07:59:37;7.85;;;6.20;;
11524;SDS011;5819;49.648;8.330;2024-03-06T08:02:06;7.90;;;6.40;;
11524;SDS011;5819;49.648;8.330;2024-03-06T08:04:34;8.90;;;5.90;;
11524;SDS011;5819;49.648;8.330;2024-03-06T08:07:03;10.75;;;6.78;;
11524;SDS011;5819;49.648;8.330;2024-03-06T08:09:31;9.00;;;6.18;;
11524;SDS011;5819;49.648;8.330;2024-03-06T08:11:59;7.45;;;5.80;;
11524;SDS011;5819;49.648;8.330;2024-03-06T08:14:27;7.63;;;5.72;;
11524;SDS011;5819;49.648;8.330;2024-03-06T08:16:55;9.30;;;5.43;;
11524;SDS011;5819;49.648;8.330;2024-03-06T08:19:25;8.77;;;5.30;;
11524;SDS011;5819;49.648;8.330;2024-03-06T08:21:54;7.95;;;4.85;;
11524;SDS011;5819;49.648;8.330;2024-03-06T08:24:22;5.35;;;3.58;;
11524;SDS011;5819;49.648;8.330;2024-03-06T08:26:50;5.45;;;3.33;;
11524;SDS011;5819;49.648;8.330;2024-03-06T08:29:19;6.82;;;4.22;;
11524;SDS011;5819;49.648;8.330;2024-03-06T08:31:48;4.97;;;3.95;;
11524;SDS011;5819;49.648;8.330;2024-03-06T08:34:15;5.22;;;4.07;;
11524;SDS011;5819;49.648;8.330;2024-03-06T08:36:46;6.68;;;3.70;;
11524;SDS011;5819;49.648;8.330;2024-03-06T08:39:13;5.50;;;3.42;;
11524;SDS011;5819;49.648;8.330;2024-03-06T08:41:42;5.38;;;3.50;;
11524;SDS011;5819;49.648;8.330;2024-03-06T08:44:10;6.00;;;3.55;;
11524;SDS011;5819;49.648;8.330;2024-03-06T08:46:38;5.50;;;3.33;;
11524;SDS011;5819;49.648;8.330;2024-03-06T08:49:06;6.45;;;3.42;;
11524;SDS011;5819;49.648;8.330;2024-03-06T08:51:36;4.75;;;3.30;;
11524;SDS011;5819;49.648;8.330;2024-03-06T08:54:06;8.10;;;3.20;;
11524;SDS011;5819;49.648;8.330;2024-03-06T08:56:39;6.13;;;3.30;;
11524;SDS011;5819;49.648;8.330;2024-03-06T08:59:10;4.53;;;3.17;;
11524;SDS011;5819;49.648;8.330;2024-03-06T09:01:38;5.35;;;2.80;;
11524;SDS011;5819;49.648;8.330;2024-03-06T09:04:05;4.55;;;3.13;;
11524;SDS011;5819;49.648;8.330;2024-03-06T09:06:33;4.68;;;3.60;;
11524;SDS011;5819;49.648;8.330;2024-03-06T09:09:01;6.03;;;3.05;;
11524;SDS011;5819;49.648;8.330;2024-03-06T09:11:33;5.63;;;3.13;;
11524;SDS011;5819;49.648;8.330;2024-03-06T09:14:01;3.78;;;2.83;;
11524;SDS011;5819;49.648;8.330;2024-03-06T09:16:31;4.03;;;3.05;;
11524;SDS011;5819;49.648;8.330;2024-03-06T09:18:59;3.72;;;3.00;;
11524;SDS011;5819;49.648;8.330;2024-03-06T09:21:28;5.25;;;2.95;;
11524;SDS011;5819;49.648;8.330;2024-03-06T09:23:56;4.47;;;2.90;;
11524;SDS011;5819;49.648;8.330;2024-03-06T09:26:24;7.68;;;3.10;;
11524;SDS011;5819;49.648;8.330;2024-03-06T09:28:53;5.22;;;2.83;;
11524;SDS011;5819;49.648;8.330;2024-03-06T09:31:21;3.33;;;2.83;;
11524;SDS011;5819;49.648;8.330;2024-03-06T09:33:50;4.72;;;2.92;;
11524;SDS011;5819;49.648;8.330;2024-03-06T09:36:18;7.10;;;3.20;;
11524;SDS011;5819;49.648;8.330;2024-03-06T09:38:46;4.93;;;2.85;;
11524;SDS011;5819;49.648;8.330;2024-03-06T09:41:13;4.97;;;3.33;;
11524;SDS011;5819;49.648;8.330;2024-03-06T09:43:43;4.63;;;3.63;;
11524;SDS011;5819;49.648;8.330;2024-03-06T09:46:12;5.97;;;3.53;;
11524;SDS011;5819;49.648;8.330;2024-03-06T09:48:42;5.00;;;3.65;;
11524;SDS011;5819;49.648;8.330;2024-03-06T09:51:13;5.70;;;4.03;;
11524;SDS011;5819;49.648;8.330;2024-03-06T09:53:41;3.90;;;3.50;;
11524;SDS011;5819;49.648;8.330;2024-03-06T09:56:10;4.47;;;3.78;;
11524;SDS011;5819;49.648;8.330;2024-03-06T09:58:38;8.07;;;5.50;;
11524;SDS011;5819;49.648;8.330;2024-03-06T10:01:06;6.78;;;6.07;;
11524;SDS011;5819;49.648;8.330;2024-03-06T10:03:36;8.65;;;5.97;;
11524;SDS011;5819;49.648;8.330;2024-03-06T10:06:06;8.55;;;6.25;;
11524;SDS011;5819;49.648;8.330;2024-03-06T10:08:41;9.70;;;7.07;;
11524;SDS011;5819;49.648;8.330;2024-03-06T10:11:10;8.07;;;7.15;;
11524;SDS011;5819;49.648;8.330;2024-03-06T10:13:39;8.65;;;6.45;;
11524;SDS011;5819;49.648;8.330;2024-03-06T10:16:07;12.13;;;8.80;;
11524;SDS011;5819;49.648;8.330;2024-03-06T10:18:39;11.80;;;9.15;;
11524;SDS011;5819;49.648;8.330;2024-03-06T10:21:07;13.82;;;10.13;;
11524;SDS011;5819;49.648;8.330;2024-03-06T10:23:35;15.32;;;10.85;;
11524;SDS011;5819;49.648;8.330;2024-03-06T10:26:04;13.50;;;10.05;;
11524;SDS011;5819;49.648;8.330;2024-03-06T10:28:35;16.15;;;12.70;;
11524;SDS011;5819;49.648;8.330;2024-03-06T10:31:04;14.52;;;11.60;;
11524;SDS011;5819;49.648;8.330;2024-03-06T10:33:34;16.77;;;12.05;;
11524;SDS011;5819;49.648;8.330;2024-03-06T10:36:09;16.50;;;12.95;;
11524;SDS011;5819;49.648;8.330;2024-03-06T10:38:38;15.27;;;12.18;;
11524;SDS011;5819;49.648;8.330;2024-03-06T10:41:12;16.13;;;12.93;;
11524;SDS011;5819;49.648;8.330;2024-03-06T10:43:45;19.27;;;13.48;;
11524;SDS011;5819;49.648;8.330;2024-03-06T10:46:17;17.08;;;12.93;;
11524;SDS011;5819;49.648;8.330;2024-03-06T10:48:47;18.27;;;13.25;;
11524;SDS011;5819;49.648;8.330;2024-03-06T10:51:17;15.80;;;12.73;;
11524;SDS011;5819;49.648;8.330;2024-03-06T10:53:47;14.80;;;12.48;;
11524;SDS011;5819;49.648;8.330;2024-03-06T10:56:17;16.23;;;11.48;;
11524;SDS011;5819;49.648;8.330;2024-03-06T10:58:48;15.18;;;12.32;;
11524;SDS011;5819;49.648;8.330;2024-03-06T11:01:18;17.13;;;12.48;;
11524;SDS011;5819;49.648;8.330;2024-03-06T11:03:47;15.63;;;12.40;;
11524;SDS011;5819;49.648;8.330;2024-03-06T11:06:15;15.27;;;13.25;;
11524;SDS011;5819;49.648;8.330;2024-03-06T11:08:45;12.30;;;10.73;;
11524;SDS011;5819;49.648;8.330;2024-03-06T11:11:21;16.10;;;11.35;;
11524;SDS011;5819;49.648;8.330;2024-03-06T11:13:54;15.32;;;11.95;;
11524;SDS011;5819;49.648;8.330;2024-03-06T11:16:27;13.73;;;12.00;;
11524;SDS011;5819;49.648;8.330;2024-03-06T11:19:06;16.30;;;13.10;;
11524;SDS011;5819;49.648;8.330;2024-03-06T11:21:36;14.27;;;12.68;;
11524;SDS011;5819;49.648;8.330;2024-03-06T11:24:18;14.38;;;12.38;;
11524;SDS011;5819;49.648;8.330;2024-03-06T11:26:47;14.02;;;12.13;;
11524;SDS011;5819;49.648;8.330;2024-03-06T11:29:17;15.00;;;12.02;;
11524;SDS011;5819;49.648;8.330;2024-03-06T11:31:57;13.73;;;12.10;;
11524;SDS011;5819;49.648;8.330;2024-03-06T11:34:30;15.75;;;12.90;;
11524;SDS011;5819;49.648;8.330;2024-03-06T11:36:57;15.57;;;12.75;;
11524;SDS011;5819;49.648;8.330;2024-03-06T11:39:32;15.27;;;12.93;;
11524;SDS011;5819;49.648;8.330;2024-03-06T11:42:03;14.73;;;13.10;;
11524;SDS011;5819;49.648;8.330;2024-03-06T11:44:35;14.80;;;13.25;;
11524;SDS011;5819;49.648;8.330;2024-03-06T11:47:05;16.88;;;12.70;;
11524;SDS011;5819;49.648;8.330;2024-03-06T11:49:35;16.20;;;12.98;;
11524;SDS011;5819;49.648;8.330;2024-03-06T11:52:05;15.23;;;13.65;;
11524;SDS011;5819;49.648;8.330;2024-03-06T11:54:37;14.98;;;13.25;;
11524;SDS011;5819;49.648;8.330;2024-03-06T11:57:05;14.80;;;12.32;;
11524;SDS011;5819;49.648;8.330;2024-03-06T11:59:33;15.70;;;13.82;;
11524;SDS011;5819;49.648;8.330;2024-03-06T12:02:06;17.50;;;14.23;;
11524;SDS011;5819;49.648;8.330;2024-03-06T12:04:36;16.35;;;14.50;;
11524;SDS011;5819;49.648;8.330;2024-03-06T12:07:05;15.45;;;13.52;;
11524;SDS011;5819;49.648;8.330;2024-03-06T12:09:37;18.38;;;13.48;;
11524;SDS011;5819;49.648;8.330;2024-03-06T12:12:09;16.13;;;13.73;;
11524;SDS011;5819;49.648;8.330;2024-03-06T12:14:38;18.05;;;13.82;;
11524;SDS011;5819;49.648;8.330;2024-03-06T12:17:11;18.25;;;14.05;;
11524;SDS011;5819;49.648;8.330;2024-03-06T12:19:42;17.60;;;14.45;;
11524;SDS011;5819;49.648;8.330;2024-03-06T12:22:11;17.08;;;13.57;;
11524;SDS011;5819;49.648;8.330;2024-03-06T12:24:40;19.65;;;13.93;;
11524;SDS011;5819;49.648;8.330;2024-03-06T12:27:09;17.30;;;14.25;;
11524;SDS011;5819;49.648;8.330;2024-03-06T12:29:37;16.23;;;14.18;;
11524;SDS011;5819;49.648;8.330;2024-03-06T12:32:15;19.00;;;15.45;;
11524;SDS011;5819;49.648;8.330;2024-03-06T12:34:44;18.67;;;15.40;;
11524;SDS011;5819;49.648;8.330;2024-03-06T12:37:28;17.40;;;14.48;;
11524;SDS011;5819;49.648;8.330;2024-03-06T12:40:02;18.10;;;15.48;;
11524;SDS011;5819;49.648;8.330;2024-03-06T12:42:31;16.95;;;15.07;;
11524;SDS011;5819;49.648;8.330;2024-03-06T12:45:00;19.52;;;15.25;;
11524;SDS011;5819;49.648;8.330;2024-03-06T12:47:29;15.32;;;13.23;;
11524;SDS011;5819;49.648;8.330;2024-03-06T12:49:58;16.33;;;14.25;;
11524;SDS011;5819;49.648;8.330;2024-03-06T12:52:26;14.30;;;12.43;;
11524;SDS011;5819;49.648;8.330;2024-03-06T12:54:54;17.52;;;13.38;;
11524;SDS011;5819;49.648;8.330;2024-03-06T12:57:24;16.02;;;12.35;;
11524;SDS011;5819;49.648;8.330;2024-03-06T12:59:52;15.02;;;12.80;;
11524;SDS011;5819;49.648;8.330;2024-03-06T13:02:20;17.85;;;14.63;;
11524;SDS011;5819;49.648;8.330;2024-03-06T13:04:47;15.50;;;13.38;;
11524;SDS011;5819;49.648;8.330;2024-03-06T13:07:15;14.00;;;12.57;;
11524;SDS011;5819;49.648;8.330;2024-03-06T13:09:43;14.07;;;12.13;;
11524;SDS011;5819;49.648;8.330;2024-03-06T13:12:11;17.13;;;14.63;;
11524;SDS011;5819;49.648;8.330;2024-03-06T13:14:41;17.88;;;14.75;;
11524;SDS011;5819;49.648;8.330;2024-03-06T13:17:09;16.70;;;14.85;;
11524;SDS011;5819;49.648;8.330;2024-03-06T13:19:37;18.77;;;14.13;;
11524;SDS011;5819;49.648;8.330;2024-03-06T13:22:05;18.70;;;14.15;;
11524;SDS011;5819;49.648;8.330;2024-03-06T13:24:34;16.38;;;14.50;;
11524;SDS011;5819;49.648;8.330;2024-03-06T13:27:07;18.27;;;15.70;;
11524;SDS011;5819;49.648;8.330;2024-03-06T13:29:35;17.88;;;15.88;;
11524;SDS011;5819;49.648;8.330;2024-03-06T13:32:04;18.15;;;15.88;;
11524;SDS011;5819;49.648;8.330;2024-03-06T13:34:33;21.73;;;16.52;;
11524;SDS011;5819;49.648;8.330;2024-03-06T13:37:01;19.65;;;16.80;;
11524;SDS011;5819;49.648;8.330;2024-03-06T13:39:30;19.13;;;16.25;;
11524;SDS011;5819;49.648;8.330;2024-03-06T13:41:58;20.58;;;16.77;;
11524;SDS011;5819;49.648;8.330;2024-03-06T13:44:26;20.15;;;17.02;;
11524;SDS011;5819;49.648;8.330;2024-03-06T13:46:54;20.45;;;16.58;;
11524;SDS011;5819;49.648;8.330;2024-03-06T13:49:34;19.50;;;16.13;;
11524;SDS011;5819;49.648;8.330;2024-03-06T13:52:03;20.45;;;16.95;;
11524;SDS011;5819;49.648;8.330;2024-03-06T13:54:33;20.85;;;16.92;;
11524;SDS011;5819;49.648;8.330;2024-03-06T13:57:02;21.58;;;16.95;;
11524;SDS011;5819;49.648;8.330;2024-03-06T13:59:30;20.42;;;16.05;;
11524;SDS011;5819;49.648;8.330;2024-03-06T14:01:58;19.67;;;15.77;;
11524;SDS011;5819;49.648;8.330;2024-03-06T14:04:28;23.60;;;15.55;;
11524;SDS011;5819;49.648;8.330;2024-03-06T14:06:56;21.23;;;15.82;;
11524;SDS011;5819;49.648;8.330;2024-03-06T14:09:25;21.17;;;16.42;;
11524;SDS011;5819;49.648;8.330;2024-03-06T14:11:53;20.02;;;16.20;;
11524;SDS011;5819;49.648;8.330;2024-03-06T14:14:22;20.15;;;17.10;;
11524;SDS011;5819;49.648;8.330;2024-03-06T14:16:50;19.50;;;16.20;;
11524;SDS011;5819;49.648;8.330;2024-03-06T14:19:18;21.33;;;15.40;;
11524;SDS011;5819;49.648;8.330;2024-03-06T14:21:47;18.60;;;13.93;;
11524;SDS011;5819;49.648;8.330;2024-03-06T14:24:15;18.75;;;14.98;;
11524;SDS011;5819;49.648;8.330;2024-03-06T14:26:43;18.35;;;14.15;;
11524;SDS011;5819;49.648;8.330;2024-03-06T14:29:11;17.08;;;13.82;;
11524;SDS011;5819;49.648;8.330;2024-03-06T14:31:39;19.45;;;13.65;;
11524;SDS011;5819;49.648;8.330;2024-03-06T14:34:06;16.42;;;12.63;;
11524;SDS011;5819;49.648;8.330;2024-03-06T14:36:34;17.98;;;12.82;;
11524;SDS011;5819;49.648;8.330;2024-03-06T14:39:04;15.77;;;12.70;;
11524;SDS011;5819;49.648;8.330;2024-03-06T14:41:32;18.27;;;12.50;;
11524;SDS011;5819;49.648;8.330;2024-03-06T14:44:00;15.93;;;12.35;;
11524;SDS011;5819;49.648;8.330;2024-03-06T14:46:28;19.02;;;13.30;;
11524;SDS011;5819;49.648;8.330;2024-03-06T14:48:56;16.02;;;12.73;;
11524;SDS011;5819;49.648;8.330;2024-03-06T14:51:24;17.75;;;13.60;;
11524;SDS011;5819;49.648;8.330;2024-03-06T14:53:52;18.90;;;13.57;;
11524;SDS011;5819;49.648;8.330;2024-03-06T14:56:21;17.65;;;13.57;;
11524;SDS011;5819;49.648;8.330;2024-03-06T14:58:49;18.20;;;13.20;;
11524;SDS011;5819;49.648;8.330;2024-03-06T15:01:18;17.55;;;12.82;;
11524;SDS011;5819;49.648;8.330;2024-03-06T15:03:45;15.85;;;12.50;;
11524;SDS011;5819;49.648;8.330;2024-03-06T15:06:13;16.95;;;13.40;;
11524;SDS011;5819;49.648;8.330;2024-03-06T15:08:41;16.65;;;12.95;;